createdAt,value
2023-05-19T00:01:00.317Z,1.13
2023-05-19T00:03:27.431Z,1.50
2023-05-19T00:05:54.376Z,0.98
2023-05-19T00:08:23.852Z,1.13
2023-05-19T00:10:50.689Z,1.17
2023-05-19T00:13:17.542Z,1.38
2023-05-19T00:15:44.428Z,1.20
2023-05-19T00:18:14.178Z,1.08
2023-05-19T00:20:41.344Z,1.42
2023-05-19T00:23:08.072Z,1.00
2023-05-19T00:25:34.786Z,1.45
2023-05-19T00:28:02.458Z,1.50
2023-05-19T00:30:30.265Z,1.08
2023-05-19T00:32:57.078Z,1.30
2023-05-19T00:35:24.164Z,1.42
2023-05-19T00:37:50.699Z,1.25
2023-05-19T00:40:17.568Z,1.33
2023-05-19T00:42:44.106Z,1.50
2023-05-19T00:45:10.723Z,1.50
2023-05-19T00:47:37.322Z,1.25
2023-05-19T00:50:04.573Z,1.40
2023-05-19T00:52:31.304Z,1.60
2023-05-19T00:54:57.942Z,1.20
2023-05-19T00:57:24.606Z,1.63
2023-05-19T00:59:51.273Z,1.33
2023-05-19T01:02:18.106Z,1.52
2023-05-19T01:04:45.077Z,1.20
2023-05-19T01:07:12.518Z,1.45
2023-05-19T01:09:40.704Z,1.23
2023-05-19T01:12:07.891Z,1.52
2023-05-19T01:14:34.444Z,1.55
2023-05-19T01:17:20.685Z,1.33
2023-05-19T01:20:02.132Z,2.00
2023-05-19T01:22:47.467Z,1.38
2023-05-19T01:25:42.704Z,1.40
2023-05-19T01:28:39.934Z,1.63
2023-05-19T01:31:09.678Z,1.40
2023-05-19T01:33:37.823Z,1.15
2023-05-19T01:36:07.524Z,1.20
2023-05-19T01:38:36.341Z,1.60
2023-05-19T01:41:04.346Z,1.77
2023-05-19T01:43:31.706Z,1.50
2023-05-19T01:45:59.025Z,1.30
2023-05-19T01:48:27.237Z,1.25
2023-05-19T01:50:53.792Z,1.40
2023-05-19T01:53:20.331Z,1.60
2023-05-19T01:55:49.875Z,1.50
2023-05-19T01:58:43.964Z,1.65
2023-05-19T02:01:44.188Z,1.50
2023-05-19T02:04:25.444Z,1.75
2023-05-19T02:07:03.583Z,1.50
2023-05-19T02:09:45.287Z,1.38
2023-05-19T02:12:18.979Z,1.48
2023-05-19T02:14:49.714Z,1.50
2023-05-19T02:17:17.938Z,1.35
2023-05-19T02:19:44.883Z,1.63
2023-05-19T02:22:11.549Z,1.70
2023-05-19T02:24:39.427Z,1.63
2023-05-19T02:27:06.354Z,1.42
2023-05-19T02:29:32.936Z,1.50
2023-05-19T02:32:01.390Z,1.50
2023-05-19T02:34:28.034Z,1.33
2023-05-19T02:36:54.599Z,2.00
2023-05-19T02:39:21.100Z,1.73
2023-05-19T02:41:47.655Z,1.60
2023-05-19T02:44:14.188Z,1.88
2023-05-19T02:46:40.984Z,1.25
2023-05-19T02:49:07.999Z,1.65
2023-05-19T02:51:34.512Z,1.30
2023-05-19T02:54:01.019Z,1.50
2023-05-19T02:56:28.235Z,1.75
2023-05-19T02:58:54.732Z,1.30
2023-05-19T03:01:23.079Z,2.13
2023-05-19T03:03:49.889Z,1.75
2023-05-19T03:06:18.081Z,1.67
2023-05-19T03:08:45.047Z,1.38
2023-05-19T03:11:11.555Z,1.42
2023-05-19T03:13:38.086Z,1.83
2023-05-19T03:16:04.829Z,1.67
2023-05-19T03:18:31.770Z,1.35
2023-05-19T03:20:58.290Z,1.48
2023-05-19T03:23:24.853Z,1.42
2023-05-19T03:25:51.409Z,1.75
2023-05-19T03:28:18.011Z,2.08
2023-05-19T03:30:44.580Z,2.65
2023-05-19T03:33:11.790Z,2.47
2023-05-19T03:35:38.390Z,2.50
2023-05-19T03:38:04.957Z,2.33
2023-05-19T03:40:31.842Z,2.38
2023-05-19T03:42:58.710Z,2.55
2023-05-19T03:45:25.259Z,2.38
2023-05-19T03:47:51.859Z,2.15
2023-05-19T03:50:18.451Z,1.88
2023-05-19T03:52:46.650Z,2.53
2023-05-19T03:55:14.731Z,2.20
2023-05-19T03:57:41.604Z,2.08
2023-05-19T04:00:11.214Z,2.22
2023-05-19T04:02:38.013Z,1.85
2023-05-19T04:05:05.172Z,1.92
2023-05-19T04:07:31.905Z,1.90
2023-05-19T04:09:58.490Z,1.90
2023-05-19T04:12:25.009Z,2.22
2023-05-19T04:14:51.526Z,2.30
2023-05-19T04:17:18.094Z,2.30
2023-05-19T04:19:44.650Z,2.63
2023-05-19T04:22:11.202Z,2.40
2023-05-19T04:24:37.728Z,2.13
2023-05-19T04:27:04.887Z,2.15
2023-05-19T04:29:32.648Z,1.70
2023-05-19T04:34:25.649Z,2.10
2023-05-19T04:36:53.452Z,1.85
2023-05-19T04:39:21.454Z,2.10
2023-05-19T04:44:18.255Z,1.95
2023-05-19T04:46:45.346Z,1.67
2023-05-19T04:49:15.075Z,1.77
2023-05-19T04:51:42.364Z,1.45
2023-05-19T04:54:10.037Z,1.50
2023-05-19T04:56:36.943Z,1.90
2023-05-19T04:59:03.719Z,1.70
2023-05-19T05:01:31.457Z,1.73
2023-05-19T05:06:26.553Z,1.60
2023-05-19T05:08:53.305Z,1.92
2023-05-19T05:11:20.620Z,1.60
2023-05-19T05:13:47.574Z,2.25
2023-05-19T05:16:14.896Z,2.00
2023-05-19T05:18:44.323Z,1.75
2023-05-19T05:21:12.279Z,1.90
2023-05-19T05:23:39.101Z,1.80
2023-05-19T05:26:16.858Z,1.92
2023-05-19T05:28:43.417Z,1.60
2023-05-19T05:31:09.940Z,1.80
2023-05-19T05:33:37.495Z,1.90
2023-05-19T05:36:04.813Z,1.50
2023-05-19T05:38:31.509Z,1.80
2023-05-19T05:40:58.045Z,1.75
2023-05-19T05:43:24.602Z,1.88
2023-05-19T05:45:51.171Z,2.13
2023-05-19T05:48:18.106Z,1.70
2023-05-19T05:50:46.071Z,2.10
2023-05-19T05:53:19.320Z,2.03
2023-05-19T05:55:47.361Z,1.90
2023-05-19T05:58:15.721Z,1.70
2023-05-19T06:00:45.478Z,1.88
2023-05-19T06:03:12.273Z,1.73
2023-05-19T06:05:39.366Z,1.90
2023-05-19T06:08:06.298Z,2.05
2023-05-19T06:10:33.273Z,1.80
2023-05-19T06:13:00.149Z,1.75
2023-05-19T06:15:26.796Z,1.88
2023-05-19T06:17:54.654Z,2.03
2023-05-19T06:20:21.407Z,1.80
2023-05-19T06:22:48.071Z,1.92
2023-05-19T06:25:14.599Z,1.67
2023-05-19T06:27:41.793Z,1.70
2023-05-19T06:30:08.997Z,1.95
2023-05-19T06:32:35.676Z,1.83
2023-05-19T06:35:02.268Z,1.73
2023-05-19T06:37:28.813Z,1.73
2023-05-19T06:39:55.534Z,1.85
2023-05-19T06:42:22.921Z,1.75
2023-05-19T06:44:50.547Z,2.05
2023-05-19T06:47:17.684Z,1.52
2023-05-19T06:49:45.142Z,1.67
2023-05-19T06:52:12.067Z,1.85
2023-05-19T06:54:38.690Z,1.90
2023-05-19T06:57:05.713Z,2.05
2023-05-19T06:59:32.275Z,2.20
2023-05-19T07:01:58.938Z,2.20
2023-05-19T07:04:25.632Z,2.13
2023-05-19T07:06:52.407Z,2.00
2023-05-19T07:09:18.983Z,1.48
2023-05-19T07:11:45.852Z,1.80
2023-05-19T07:14:12.437Z,1.63
2023-05-19T07:16:39.010Z,1.75
2023-05-19T07:19:05.725Z,1.90
2023-05-19T07:21:32.332Z,2.03
2023-05-19T07:23:58.877Z,1.70
2023-05-19T07:26:26.357Z,1.73
2023-05-19T07:28:53.047Z,1.60
2023-05-19T07:31:19.704Z,1.75
2023-05-19T07:33:46.337Z,1.88
2023-05-19T07:36:12.854Z,1.60
2023-05-19T07:38:39.674Z,1.90
2023-05-19T07:41:06.231Z,2.15
2023-05-19T07:43:32.826Z,1.58
2023-05-19T07:45:59.448Z,1.65
2023-05-19T07:48:26.112Z,1.85
2023-05-19T07:50:53.247Z,1.60
2023-05-19T07:53:20.166Z,2.03
2023-05-19T07:55:46.886Z,1.70
2023-05-19T07:58:13.749Z,1.70
2023-05-19T08:00:43.042Z,1.40
2023-05-19T08:03:10.032Z,1.50
2023-05-19T08:05:36.819Z,1.73
2023-05-19T08:08:03.781Z,1.70
2023-05-19T08:10:30.471Z,1.40
2023-05-19T08:12:57.054Z,1.70
2023-05-19T08:15:23.734Z,1.88
2023-05-19T08:17:50.309Z,1.83
2023-05-19T08:20:17.146Z,1.25
2023-05-19T08:22:43.656Z,1.52
2023-05-19T08:25:10.448Z,1.80
2023-05-19T08:27:37.028Z,1.85
2023-05-19T08:30:03.716Z,1.45
2023-05-19T08:32:30.381Z,1.70
2023-05-19T08:34:56.987Z,1.60
2023-05-19T08:37:23.504Z,1.15
2023-05-19T08:39:50.091Z,1.48
2023-05-19T08:42:16.713Z,1.35
2023-05-19T08:44:44.117Z,1.63
2023-05-19T08:47:13.953Z,1.40
2023-05-19T08:49:45.533Z,1.50
2023-05-19T08:52:41.927Z,1.50
2023-05-19T08:55:43.984Z,1.60
2023-05-19T08:58:12.718Z,1.58
2023-05-19T09:00:39.818Z,1.50
2023-05-19T09:03:18.331Z,1.45
2023-05-19T09:05:50.773Z,1.13
2023-05-19T09:08:18.398Z,1.50
2023-05-19T09:10:44.991Z,1.60
2023-05-19T09:13:11.752Z,1.50
2023-05-19T09:15:39.216Z,1.50
2023-05-19T09:18:10.898Z,1.27
2023-05-19T09:20:40.214Z,1.35
2023-05-19T09:23:07.826Z,1.50
2023-05-19T09:25:34.769Z,1.23
2023-05-19T09:28:01.524Z,1.17
2023-05-19T09:30:28.469Z,1.42
2023-05-19T09:32:55.037Z,1.50
2023-05-19T09:35:21.697Z,1.00
2023-05-19T09:37:48.336Z,1.20
2023-05-19T09:40:15.785Z,1.50
2023-05-19T09:42:44.015Z,1.40
2023-05-19T09:45:11.348Z,1.00
2023-05-19T09:47:42.011Z,1.25
2023-05-19T09:50:11.014Z,1.55
2023-05-19T09:52:44.233Z,1.63
2023-05-19T09:55:12.787Z,1.30
2023-05-19T09:57:40.772Z,1.40
2023-05-19T10:00:15.281Z,1.30
2023-05-19T10:02:44.132Z,1.35
2023-05-19T10:05:20.366Z,1.83
2023-05-19T10:07:50.011Z,1.20
2023-05-19T10:10:17.044Z,1.33
2023-05-19T10:12:44.000Z,1.20
2023-05-19T10:15:13.089Z,1.70
2023-05-19T10:17:40.969Z,1.63
2023-05-19T10:20:12.783Z,1.38
2023-05-19T10:22:39.880Z,1.50
2023-05-19T10:25:08.220Z,1.33
2023-05-19T10:27:38.922Z,1.70
2023-05-19T10:30:14.443Z,1.30
2023-05-19T10:32:45.147Z,1.48
2023-05-19T10:35:30.323Z,1.13
2023-05-19T10:37:58.184Z,1.60
2023-05-19T10:40:30.131Z,1.40
2023-05-19T10:43:01.476Z,1.27
2023-05-19T10:45:34.729Z,1.20
2023-05-19T10:48:01.610Z,1.15
2023-05-19T10:50:36.665Z,1.23
2023-05-19T10:53:03.238Z,1.00
2023-05-19T10:56:04.428Z,1.38
2023-05-19T10:58:46.122Z,1.25
2023-05-19T11:01:17.915Z,1.40
2023-05-19T11:03:52.293Z,1.00
2023-05-19T11:06:18.901Z,0.93
2023-05-19T11:08:45.446Z,1.48
2023-05-19T11:11:19.109Z,0.82
2023-05-19T11:13:55.045Z,1.25
2023-05-19T11:16:29.781Z,1.00
2023-05-19T11:18:59.449Z,1.40
2023-05-19T11:21:41.742Z,1.10
2023-05-19T11:24:09.374Z,1.30
2023-05-19T11:26:42.307Z,1.15
2023-05-19T11:29:09.214Z,1.33
2023-05-19T11:31:36.469Z,1.10
2023-05-19T11:34:06.797Z,1.10
2023-05-19T11:36:35.025Z,1.00
2023-05-19T11:39:02.650Z,1.13
2023-05-19T11:41:30.981Z,1.00
2023-05-19T11:43:57.776Z,0.90
2023-05-19T11:46:25.158Z,0.90
2023-05-19T11:48:53.993Z,0.98
2023-05-19T11:51:21.654Z,0.90
2023-05-19T11:56:16.356Z,0.80
2023-05-19T11:58:42.860Z,0.90
2023-05-19T12:01:10.265Z,0.90
2023-05-19T12:03:37.210Z,0.98
2023-05-19T12:06:05.822Z,0.90
2023-05-19T12:08:32.641Z,0.80
2023-05-19T12:10:59.437Z,0.90
2023-05-19T12:13:26.117Z,0.60
2023-05-19T12:15:53.526Z,0.90
2023-05-19T12:18:20.695Z,0.85
2023-05-19T12:20:47.451Z,1.10
2023-05-19T12:23:14.421Z,1.08
2023-05-19T12:25:41.188Z,0.75
2023-05-19T12:28:07.813Z,1.00
2023-05-19T12:30:35.284Z,1.02
2023-05-19T12:33:02.913Z,0.85
2023-05-19T12:35:33.102Z,1.00
2023-05-19T12:38:04.730Z,0.90
2023-05-19T12:40:33.218Z,0.90
2023-05-19T12:43:00.156Z,0.80
2023-05-19T12:45:30.826Z,0.95
2023-05-19T12:47:57.789Z,0.80
2023-05-19T12:50:31.135Z,0.80
2023-05-19T12:52:59.819Z,0.77
2023-05-19T12:55:26.698Z,0.80
2023-05-19T12:57:56.800Z,0.70
2023-05-19T13:00:32.608Z,0.90
2023-05-19T13:03:01.976Z,0.65
2023-05-19T13:05:30.904Z,0.60
2023-05-19T13:08:09.024Z,0.60
2023-05-19T13:10:36.986Z,0.60
2023-05-19T13:13:04.448Z,0.75
2023-05-19T13:15:36.385Z,0.50
2023-05-19T13:18:04.617Z,0.60
2023-05-19T13:20:31.336Z,0.70
2023-05-19T13:22:57.989Z,0.80
2023-05-19T13:25:24.644Z,0.65
2023-05-19T13:27:51.252Z,0.57
2023-05-19T13:30:18.772Z,0.60
2023-05-19T13:32:45.974Z,0.60
2023-05-19T13:35:14.545Z,0.70
2023-05-19T13:37:44.403Z,0.82
2023-05-19T13:40:12.061Z,0.80
2023-05-19T13:42:38.826Z,0.45
2023-05-19T13:45:05.886Z,0.50
2023-05-19T13:47:32.602Z,0.80
2023-05-19T13:49:59.355Z,0.73
2023-05-19T13:52:27.551Z,0.60
2023-05-19T13:54:56.601Z,0.60
2023-05-19T13:57:24.064Z,0.77
2023-05-19T14:00:01.860Z,0.63
2023-05-19T14:02:30.010Z,0.77
2023-05-19T14:04:57.007Z,0.60
2023-05-19T14:07:23.673Z,0.60
2023-05-19T14:09:51.229Z,0.55
2023-05-19T14:12:17.961Z,0.60
2023-05-19T14:14:44.834Z,0.60
2023-05-19T14:17:12.306Z,0.80
2023-05-19T14:19:38.941Z,0.90
2023-05-19T14:22:05.955Z,0.77
2023-05-19T14:24:32.571Z,1.10
2023-05-19T14:26:59.116Z,0.80
2023-05-19T14:29:26.675Z,1.02
2023-05-19T14:31:53.334Z,0.93
2023-05-19T14:34:21.227Z,0.77
2023-05-19T14:36:48.722Z,0.80
2023-05-19T14:39:15.554Z,0.80
2023-05-19T14:41:42.089Z,0.80
2023-05-19T14:44:08.825Z,1.75
2023-05-19T14:46:35.977Z,0.85
2023-05-19T14:49:03.302Z,0.98
2023-05-19T14:51:29.854Z,0.93
2023-05-19T14:53:56.455Z,1.00
2023-05-19T14:56:23.074Z,0.70
2023-05-19T14:58:49.620Z,0.85
2023-05-19T15:01:16.309Z,0.98
2023-05-19T15:03:42.945Z,0.90
2023-05-19T15:06:13.072Z,1.00
2023-05-19T15:08:40.780Z,1.00
2023-05-19T15:11:07.780Z,1.05
2023-05-19T15:13:34.293Z,0.93
2023-05-19T15:16:15.481Z,1.00
2023-05-19T15:18:43.456Z,1.20
2023-05-19T15:21:10.212Z,0.85
2023-05-19T15:23:36.768Z,1.00
2023-05-19T15:26:03.435Z,0.93
2023-05-19T15:28:30.094Z,1.17
2023-05-19T15:30:56.654Z,1.00
2023-05-19T15:33:23.315Z,1.10
2023-05-19T15:35:51.737Z,0.88
2023-05-19T15:38:20.020Z,0.93
2023-05-19T15:40:46.936Z,1.40
2023-05-19T15:43:13.812Z,1.42
2023-05-19T15:45:40.911Z,1.35
2023-05-19T15:48:07.778Z,1.30
2023-05-19T15:50:34.638Z,1.52
2023-05-19T15:53:01.503Z,2.22
2023-05-19T15:55:28.089Z,1.90
2023-05-19T15:57:54.621Z,1.50
2023-05-19T16:00:21.319Z,1.40
2023-05-19T16:02:48.062Z,1.63
2023-05-19T16:05:14.740Z,1.33
2023-05-19T16:07:42.230Z,1.45
2023-05-19T16:10:09.194Z,1.67
2023-05-19T16:12:36.671Z,1.50
2023-05-19T16:15:03.786Z,1.65
2023-05-19T16:17:30.665Z,1.40
2023-05-19T16:19:57.275Z,1.25
2023-05-19T16:22:24.817Z,1.40
2023-05-19T16:24:52.154Z,1.30
2023-05-19T16:27:19.064Z,1.30
2023-05-19T16:29:45.837Z,1.65
2023-05-19T16:32:12.852Z,1.20
2023-05-19T16:34:39.774Z,1.40
2023-05-19T16:37:06.764Z,1.50
2023-05-19T16:39:36.024Z,1.10
2023-05-19T16:42:03.375Z,1.23
2023-05-19T16:44:30.104Z,1.00
2023-05-19T16:46:56.628Z,1.27
2023-05-19T16:49:23.151Z,1.20
2023-05-19T16:51:50.068Z,1.20
2023-05-19T16:54:16.757Z,1.20
2023-05-19T16:56:43.311Z,1.20
2023-05-19T16:59:09.920Z,1.23
2023-05-19T17:01:36.570Z,1.30
2023-05-19T17:04:03.196Z,1.35
2023-05-19T17:06:29.772Z,1.27
2023-05-19T17:08:56.316Z,1.25
2023-05-19T17:11:22.934Z,1.10
2023-05-19T17:13:49.647Z,1.30
2023-05-19T17:16:16.332Z,1.23
2023-05-19T17:18:43.828Z,1.20
2023-05-19T17:21:10.643Z,1.58
2023-05-19T17:23:37.901Z,1.67
2023-05-19T17:26:04.668Z,1.45
2023-05-19T17:28:31.247Z,1.30
2023-05-19T17:30:57.850Z,1.42
2023-05-19T17:33:24.599Z,1.30
2023-05-19T17:35:51.278Z,1.40
2023-05-19T17:38:17.831Z,1.38
2023-05-19T17:40:44.505Z,1.35
2023-05-19T17:43:11.017Z,1.50
2023-05-19T17:45:37.568Z,1.90
2023-05-19T17:48:04.791Z,2.50
2023-05-19T17:50:31.526Z,3.03
2023-05-19T17:52:58.520Z,1.95
2023-05-19T17:55:29.732Z,1.95
2023-05-19T17:57:56.907Z,1.55
2023-05-19T18:00:25.137Z,2.00
2023-05-19T18:02:52.449Z,2.30
2023-05-19T18:05:19.675Z,1.80
2023-05-19T18:07:46.388Z,1.90
2023-05-19T18:10:15.388Z,1.70
2023-05-19T18:12:41.910Z,1.88
2023-05-19T18:15:08.746Z,1.83
2023-05-19T18:17:35.498Z,1.80
2023-05-19T18:20:02.391Z,2.10
2023-05-19T18:22:29.002Z,1.65
2023-05-19T18:24:56.236Z,1.50
2023-05-19T18:27:22.768Z,1.65
2023-05-19T18:29:49.317Z,1.45
2023-05-19T18:32:17.673Z,1.75
2023-05-19T18:34:44.276Z,1.67
2023-05-19T18:37:10.877Z,1.35
2023-05-19T18:39:37.450Z,1.73
2023-05-19T18:42:04.252Z,1.58
2023-05-19T18:44:31.104Z,1.52
2023-05-19T18:46:57.644Z,1.70
2023-05-19T18:49:25.035Z,1.48
2023-05-19T18:51:51.869Z,1.20
2023-05-19T18:54:19.433Z,1.67
2023-05-19T18:56:46.115Z,1.60
2023-05-19T18:59:12.775Z,1.30
2023-05-19T19:01:39.535Z,1.83
2023-05-19T19:04:06.287Z,1.50
2023-05-19T19:06:32.882Z,1.25
2023-05-19T19:08:59.417Z,1.42
2023-05-19T19:11:26.396Z,1.50
2023-05-19T19:13:55.472Z,1.50
2023-05-19T19:16:22.438Z,1.38
2023-05-19T19:18:49.161Z,1.42
2023-05-19T19:21:15.859Z,1.50
2023-05-19T19:23:42.452Z,1.30
2023-05-19T19:26:09.567Z,1.67
2023-05-19T19:28:36.513Z,1.45
2023-05-19T19:31:03.328Z,1.50
2023-05-19T19:33:29.892Z,1.60
2023-05-19T19:35:56.549Z,1.35
2023-05-19T19:38:23.133Z,1.35
2023-05-19T19:40:52.501Z,1.30
2023-05-19T19:43:19.461Z,1.65
2023-05-19T19:45:46.141Z,1.50
2023-05-19T19:48:12.856Z,1.40
2023-05-19T19:50:39.457Z,1.40
2023-05-19T19:53:06.184Z,1.40
2023-05-19T19:55:32.870Z,1.60
2023-05-19T19:57:59.425Z,1.60
2023-05-19T20:00:26.149Z,1.33
2023-05-19T20:03:04.239Z,1.40
2023-05-19T20:05:32.007Z,1.38
2023-05-19T20:07:58.564Z,1.38
2023-05-19T20:10:25.176Z,1.50
2023-05-19T20:12:52.039Z,1.30
2023-05-19T20:15:18.759Z,1.38
2023-05-19T20:17:45.878Z,1.40
2023-05-19T20:20:12.924Z,1.50
2023-05-19T20:22:39.685Z,1.20
2023-05-19T20:25:06.593Z,1.60
2023-05-19T20:27:33.222Z,1.13
2023-05-19T20:29:59.825Z,1.33
2023-05-19T20:32:26.444Z,1.13
2023-05-19T20:34:53.059Z,1.20
2023-05-19T20:37:20.998Z,1.55
2023-05-19T20:39:47.742Z,1.60
2023-05-19T20:42:14.337Z,1.40
2023-05-19T20:44:41.044Z,1.50
2023-05-19T20:47:08.219Z,1.33
2023-05-19T20:49:35.085Z,1.50
2023-05-19T20:52:01.914Z,1.33
2023-05-19T20:54:28.486Z,1.30
2023-05-19T20:56:55.012Z,1.48
2023-05-19T20:59:21.807Z,1.20
2023-05-19T21:01:51.636Z,1.40
2023-05-19T21:04:19.491Z,1.50
2023-05-19T21:06:46.558Z,1.45
2023-05-19T21:09:14.824Z,1.40
2023-05-19T21:11:42.668Z,1.45
2023-05-19T21:14:11.862Z,1.30
2023-05-19T21:16:47.126Z,1.42
2023-05-19T21:19:14.356Z,1.50
2023-05-19T21:21:43.462Z,1.40
2023-05-19T21:24:13.120Z,1.10
2023-05-19T21:26:42.216Z,1.17
2023-05-19T21:29:10.210Z,1.50
2023-05-19T21:31:47.889Z,1.45
2023-05-19T21:34:16.085Z,1.50
2023-05-19T21:36:44.178Z,1.15
2023-05-19T21:39:11.903Z,1.13
2023-05-19T21:41:38.746Z,1.52
2023-05-19T21:44:06.295Z,1.52
2023-05-19T21:46:37.484Z,1.42
2023-05-19T21:49:08.478Z,1.48
2023-05-19T21:51:38.424Z,1.40
2023-05-19T21:54:08.065Z,1.92
2023-05-19T21:56:35.010Z,1.58
2023-05-19T21:59:01.820Z,1.80
2023-05-19T22:01:29.812Z,1.67
2023-05-19T22:06:31.682Z,1.63
2023-05-19T22:09:01.356Z,1.90
2023-05-19T22:11:30.008Z,1.70
2023-05-19T22:13:56.937Z,1.58
2023-05-19T22:16:26.555Z,1.67
2023-05-19T22:18:55.804Z,1.83
2023-05-19T22:21:28.111Z,1.48
2023-05-19T22:23:58.146Z,1.65
2023-05-19T22:26:27.274Z,1.63
2023-05-19T22:28:54.068Z,1.50
2023-05-19T22:31:20.687Z,1.60
2023-05-19T22:33:47.483Z,1.08
2023-05-19T22:36:16.034Z,1.60
2023-05-19T22:38:42.561Z,1.48
2023-05-19T22:41:09.086Z,1.50
2023-05-19T22:43:35.723Z,1.60
2023-05-19T22:46:02.360Z,1.50
2023-05-19T22:48:28.884Z,1.42
2023-05-19T22:50:55.468Z,1.35
2023-05-19T22:53:21.985Z,1.40
2023-05-19T22:55:48.494Z,1.30
2023-05-19T22:58:15.078Z,1.60
2023-05-19T23:00:41.592Z,1.40
2023-05-19T23:03:08.172Z,1.50
2023-05-19T23:05:35.272Z,1.35
2023-05-19T23:08:02.053Z,1.10
2023-05-19T23:10:28.845Z,1.17
2023-05-19T23:12:55.453Z,1.38
2023-05-19T23:15:21.962Z,1.30
2023-05-19T23:17:48.614Z,1.20
2023-05-19T23:20:15.303Z,1.52
2023-05-19T23:22:41.831Z,1.23
2023-05-19T23:25:08.488Z,1.33
2023-05-19T23:27:35.684Z,1.35
2023-05-19T23:30:03.093Z,1.45
2023-05-19T23:32:29.711Z,1.13
2023-05-19T23:34:56.354Z,1.30
2023-05-19T23:37:22.933Z,1.17
2023-05-19T23:39:49.515Z,1.00
2023-05-19T23:42:16.106Z,1.20
2023-05-19T23:44:42.702Z,1.00
2023-05-19T23:47:09.319Z,0.90
2023-05-19T23:49:36.002Z,1.30
2023-05-19T23:52:02.510Z,1.10
2023-05-19T23:54:30.312Z,1.10
2023-05-19T23:56:56.950Z,1.02
2023-05-19T23:59:23.529Z,1.00
